createdAt,value
2023-03-23T19:06:18.651Z,15.48
2023-03-23T19:08:52.317Z,15.46
2023-03-23T19:17:22.884Z,15.36
2023-03-23T19:20:07.075Z,15.30
2023-03-23T19:22:47.762Z,15.26
2023-03-23T19:25:20.958Z,15.24
2023-03-23T19:30:32.708Z,15.18
2023-03-23T19:33:06.359Z,15.18
2023-03-23T19:35:37.473Z,15.16
2023-03-23T19:38:12.978Z,15.18
2023-03-23T19:41:14.162Z,15.15
2023-03-23T19:43:47.718Z,15.10
2023-03-23T19:51:45.129Z,15.02
2023-03-23T19:54:16.103Z,15.01
2023-03-23T19:57:05.683Z,14.96
2023-03-23T20:02:29.739Z,15.02
2023-03-23T20:04:58.051Z,14.99
2023-03-23T20:07:27.045Z,15.01
2023-03-23T20:09:56.675Z,15.02
2023-03-23T20:12:27.934Z,15.05
2023-03-23T20:15:00.006Z,15.09
2023-03-23T20:17:38.676Z,15.17
2023-03-23T20:22:57.810Z,15.23
2023-03-23T20:34:02.445Z,15.18
2023-03-23T20:36:57.902Z,15.20
2023-03-23T20:50:12.880Z,14.99
2023-03-23T20:52:45.104Z,15.02
2023-03-23T20:55:15.542Z,15.01
2023-03-23T20:57:44.614Z,15.01
2023-03-23T21:00:19.018Z,15.05
2023-03-23T21:02:49.940Z,15.05
2023-03-23T21:05:20.947Z,15.08
2023-03-23T21:13:21.065Z,15.01
2023-03-23T21:15:51.979Z,15.02
2023-03-23T21:18:22.432Z,15.02
2023-03-23T21:20:54.681Z,15.06
2023-03-23T21:23:27.088Z,15.06
2023-03-23T21:26:00.873Z,15.08
2023-03-23T21:28:30.688Z,15.16
2023-03-23T21:31:02.545Z,15.11
2023-03-23T21:33:31.613Z,15.14
2023-03-23T21:36:01.867Z,15.10
2023-03-23T21:38:31.672Z,15.08
2023-03-23T21:41:01.480Z,15.08
2023-03-23T21:43:31.253Z,15.09
2023-03-23T21:46:03.201Z,15.07
2023-03-23T21:48:33.111Z,15.05
2023-03-23T21:51:09.573Z,15.04
2023-03-23T21:53:39.958Z,15.04
2023-03-23T21:56:10.956Z,15.02
2023-03-23T21:58:39.906Z,14.98
2023-03-23T22:01:08.679Z,14.99
2023-03-23T22:03:42.987Z,15.05
2023-03-23T22:06:19.049Z,14.95
2023-03-23T22:08:48.189Z,14.98
2023-03-23T22:11:21.281Z,14.99
2023-03-23T22:13:52.471Z,14.99
2023-03-23T22:16:22.717Z,14.95
2023-03-23T22:19:02.904Z,14.89
2023-03-23T22:21:35.364Z,14.87
2023-03-23T22:24:05.514Z,14.84
2023-03-23T22:26:36.312Z,14.81
2023-03-23T22:29:10.974Z,14.83
2023-03-23T22:31:42.242Z,14.86
2023-03-23T22:34:12.230Z,14.90
2023-03-23T22:36:43.053Z,14.91
2023-03-23T22:39:13.077Z,14.92
2023-03-23T22:41:49.384Z,14.87
2023-03-23T22:44:20.094Z,14.79
2023-03-23T22:46:48.651Z,14.75
2023-03-23T22:49:17.335Z,14.68
2023-03-23T22:51:54.743Z,14.66
2023-03-23T22:54:24.202Z,14.66
2023-03-23T22:56:56.394Z,14.61
2023-03-23T22:59:44.944Z,14.60
2023-03-23T23:11:12.726Z,14.43
2023-03-23T23:13:51.043Z,14.39
2023-03-23T23:19:07.826Z,14.34
2023-03-23T23:47:21.742Z,14.07
